createdAt,value
2018-01-01T00:00:03.014Z,21.46
2018-01-01T00:01:12.198Z,21.38
2018-01-01T00:02:21.141Z,21.43
2018-01-01T00:03:30.071Z,21.43
2018-01-01T00:04:39.262Z,21.46
2018-01-01T00:05:48.709Z,21.46
2018-01-01T00:06:57.647Z,21.38
2018-01-01T00:08:06.591Z,21.43
2018-01-01T00:09:15.522Z,21.46
2018-01-01T00:10:24.452Z,21.42
2018-01-01T00:11:33.915Z,21.47
2018-01-01T00:12:42.845Z,21.4
2018-01-01T00:13:51.777Z,21.42
2018-01-01T00:15:00.711Z,21.47
2018-01-01T00:16:09.902Z,21.4
2018-01-01T00:17:18.848Z,21.4
2018-01-01T00:18:27.774Z,21.35
2018-01-01T00:19:36.967Z,21.37
2018-01-01T00:20:45.636Z,21.35
2018-01-01T00:21:54.828Z,21.44
2018-01-01T00:23:03.779Z,21.42
2018-01-01T00:24:12.460Z,21.34
2018-01-01T00:25:21.130Z,21.37
2018-01-01T00:26:30.112Z,21.4
2018-01-01T00:27:39.313Z,21.32
2018-01-01T00:28:48.765Z,21.37
2018-01-01T00:29:57.701Z,21.4
2018-01-01T00:31:06.629Z,21.34
2018-01-01T00:32:15.552Z,21.29
2018-01-01T00:33:24.222Z,21.29
2018-01-01T00:34:33.431Z,21.34
2018-01-01T00:35:42.880Z,21.34
2018-01-01T00:36:52.354Z,21.31
2018-01-01T00:38:01.381Z,21.34
2018-01-01T00:39:09.975Z,21.28
2018-01-01T00:40:18.914Z,21.31
2018-01-01T00:41:27.864Z,21.29
2018-01-01T00:42:36.813Z,21.29
2018-01-01T00:43:46.001Z,21.22
2018-01-01T00:44:55.191Z,21.32
2018-01-01T00:46:04.383Z,21.21
2018-01-01T00:47:13.582Z,21.22
2018-01-01T00:48:22.527Z,21.25
2018-01-01T00:49:31.801Z,21.28
2018-01-01T00:50:40.473Z,21.17
2018-01-01T00:51:49.668Z,21.25
2018-01-01T00:52:58.336Z,21.21
2018-01-01T00:54:07.262Z,21.24
2018-01-01T00:55:16.454Z,21.22
2018-01-01T00:56:25.493Z,21.19
2018-01-01T00:57:34.941Z,21.27
2018-01-01T00:58:44.150Z,21.28
2018-01-01T00:59:53.108Z,21.22
2018-01-01T01:01:02.307Z,21.25
2018-01-01T01:02:10.997Z,21.25
2018-01-01T01:03:20.207Z,21.25
2018-01-01T01:04:29.411Z,21.17
2018-01-01T01:05:38.605Z,21.24
2018-01-01T01:06:47.543Z,21.27
2018-01-01T01:07:56.204Z,21.29
2018-01-01T01:09:04.882Z,21.25
2018-01-01T01:10:13.555Z,21.25
2018-01-01T01:11:22.492Z,21.22
2018-01-01T01:12:31.161Z,21.27
2018-01-01T01:13:40.092Z,21.28
2018-01-01T01:14:49.984Z,21.28
2018-01-01T01:15:58.653Z,21.24
2018-01-01T01:17:07.328Z,21.24
2018-01-01T01:18:16.536Z,21.25
2018-01-01T01:19:25.741Z,21.29
2018-01-01T01:20:34.672Z,21.27
2018-01-01T01:21:43.343Z,21.22
2018-01-01T01:22:52.590Z,21.28
2018-01-01T01:24:01.525Z,21.27
2018-01-01T01:25:10.195Z,21.25
2018-01-01T01:26:19.146Z,21.25
2018-01-01T01:27:28.087Z,21.27
2018-01-01T01:28:36.766Z,21.21
2018-01-01T01:29:45.703Z,21.24
2018-01-01T01:30:54.629Z,21.17
2018-01-01T01:32:03.853Z,21.19
2018-01-01T01:33:12.789Z,21.22
2018-01-01T01:34:21.467Z,21.24
2018-01-01T01:35:30.142Z,21.24
2018-01-01T01:36:39.346Z,21.14
2018-01-01T01:37:48.020Z,21.24
2018-01-01T01:38:56.955Z,21.25
2018-01-01T01:40:05.888Z,21.21
2018-01-01T01:41:15.342Z,21.22
2018-01-01T01:42:24.542Z,21.25
2018-01-01T01:43:33.745Z,21.16
2018-01-01T01:44:42.690Z,21.19
2018-01-01T01:45:51.438Z,21.19
2018-01-01T01:47:00.116Z,21.16
2018-01-01T01:48:09.059Z,21.14
2018-01-01T01:49:17.997Z,21.16
2018-01-01T01:50:26.934Z,21.14
2018-01-01T01:51:35.634Z,21.14
2018-01-01T01:52:44.643Z,21.17
2018-01-01T01:53:53.353Z,21.14
2018-01-01T01:55:02.284Z,21.13
2018-01-01T01:56:10.960Z,21.12
2018-01-01T01:57:20.159Z,21.13
2018-01-01T01:58:28.832Z,21.1
2018-01-01T01:59:37.762Z,21.16
2018-01-01T02:00:46.450Z,21.13
2018-01-01T02:01:55.643Z,21.13
2018-01-01T02:03:04.322Z,21.13
2018-01-01T02:04:13.263Z,21.13
2018-01-01T02:05:22.210Z,21.17
2018-01-01T02:06:30.887Z,21.13
2018-01-01T02:07:39.561Z,21.12
2018-01-01T02:08:48.750Z,21.16
2018-01-01T02:09:57.941Z,21.13
2018-01-01T02:11:07.143Z,21.19
2018-01-01T02:12:16.330Z,21.09
2018-01-01T02:13:25.580Z,21.19
2018-01-01T02:14:34.223Z,21.04
2018-01-01T02:15:42.901Z,21.04
2018-01-01T02:16:51.834Z,21.13
2018-01-01T02:18:00.764Z,21.04
2018-01-01T02:19:09.696Z,21.03
2018-01-01T02:20:18.624Z,21.06
2018-01-01T02:21:27.817Z,21.01
2018-01-01T02:22:36.495Z,21.03
2018-01-01T02:23:45.186Z,21.04
2018-01-01T02:24:54.392Z,21.03
2018-01-01T02:26:03.316Z,21.04
2018-01-01T02:27:12.270Z,21.14
2018-01-01T02:28:20.939Z,21.13
2018-01-01T02:29:29.880Z,21.01
2018-01-01T02:31:10.641Z,21.06
2018-01-01T02:32:19.852Z,21.03
2018-01-01T02:33:28.784Z,21.12
2018-01-01T02:34:37.462Z,21.03
2018-01-01T02:35:46.139Z,21.07
2018-01-01T02:36:55.076Z,21.03
2018-01-01T02:38:04.006Z,21.07
2018-01-01T02:39:12.951Z,21.03
2018-01-01T02:40:21.644Z,21.1
2018-01-01T02:41:30.835Z,21.07
2018-01-01T02:42:39.776Z,21.06
2018-01-01T02:43:48.966Z,21.01
2018-01-01T02:44:58.201Z,21.03
2018-01-01T02:46:07.138Z,21.06
2018-01-01T02:47:16.075Z,21.09
2018-01-01T02:48:25.014Z,21.03
2018-01-01T02:49:33.949Z,21.09
2018-01-01T02:50:42.621Z,21.07
2018-01-01T02:51:51.830Z,20.98
2018-01-01T02:53:01.027Z,21.07
2018-01-01T02:54:10.227Z,20.99
2018-01-01T02:55:18.914Z,21.01
2018-01-01T02:56:28.112Z,21.03
2018-01-01T02:57:37.574Z,21.01
2018-01-01T02:58:46.512Z,21.06
2018-01-01T02:59:55.988Z,20.98
2018-01-01T03:01:04.933Z,20.97
2018-01-01T03:02:14.146Z,20.98
2018-01-01T03:03:23.616Z,20.95
2018-01-01T03:04:32.546Z,20.97
2018-01-01T03:05:41.746Z,21.04
2018-01-01T03:06:50.692Z,20.92
2018-01-01T03:07:59.627Z,21.01
2018-01-01T03:09:08.569Z,20.99
2018-01-01T03:10:17.766Z,20.99
2018-01-01T03:11:27.497Z,20.94
2018-01-01T03:12:36.696Z,20.99
2018-01-01T03:13:45.375Z,20.99
2018-01-01T03:14:54.312Z,20.99
2018-01-01T03:16:03.007Z,20.92
2018-01-01T03:17:11.695Z,20.95
2018-01-01T03:18:20.898Z,20.95
2018-01-01T03:19:30.093Z,20.98
2018-01-01T03:20:39.035Z,20.94
2018-01-01T03:21:47.978Z,20.97
2018-01-01T03:22:56.922Z,21.01
2018-01-01T03:24:05.859Z,20.98
2018-01-01T03:25:15.069Z,20.94
2018-01-01T03:26:24.015Z,20.98
2018-01-01T03:27:33.214Z,20.99
2018-01-01T03:28:41.887Z,20.92
2018-01-01T03:29:50.828Z,20.94
2018-01-01T03:30:59.761Z,20.98
2018-01-01T03:32:08.962Z,20.94
2018-01-01T03:33:17.647Z,20.98
2018-01-01T03:34:26.591Z,20.94
2018-01-01T03:35:35.534Z,20.94
2018-01-01T03:36:44.732Z,20.94
2018-01-01T03:37:53.666Z,20.97
2018-01-01T03:39:02.909Z,20.92
2018-01-01T03:40:11.843Z,20.98
2018-01-01T03:41:21.097Z,20.92
2018-01-01T03:42:30.037Z,20.95
2018-01-01T03:43:38.999Z,20.97
2018-01-01T03:44:48.194Z,20.94
2018-01-01T03:45:56.867Z,20.89
2018-01-01T03:47:06.317Z,20.98
2018-01-01T03:48:15.794Z,20.99
2018-01-01T03:49:25.000Z,20.94
2018-01-01T03:50:34.194Z,20.95
2018-01-01T03:51:43.402Z,20.99
2018-01-01T03:52:52.330Z,20.92
2018-01-01T03:54:01.292Z,20.94
2018-01-01T03:55:10.229Z,20.92
2018-01-01T03:56:19.177Z,20.98
2018-01-01T03:57:28.111Z,20.94
2018-01-01T03:58:37.055Z,20.97
2018-01-01T03:59:46.331Z,20.97
2018-01-01T04:00:55.010Z,20.97
2018-01-01T04:02:04.199Z,20.91
2018-01-01T04:03:13.128Z,21.01
2018-01-01T04:04:22.065Z,20.95
2018-01-01T04:05:31.271Z,20.91
2018-01-01T04:06:40.204Z,20.97
2018-01-01T04:07:48.880Z,20.92
2018-01-01T04:08:57.552Z,20.95
2018-01-01T04:10:06.233Z,20.95
2018-01-01T04:11:14.913Z,20.94
2018-01-01T04:12:23.585Z,20.92
2018-01-01T04:13:32.262Z,20.92
2018-01-01T04:14:41.456Z,20.95
2018-01-01T04:15:50.917Z,20.95
2018-01-01T04:16:59.605Z,20.97
2018-01-01T04:18:08.545Z,20.94
2018-01-01T04:19:17.739Z,20.91
2018-01-01T04:20:26.933Z,20.92
2018-01-01T04:21:36.388Z,20.92
2018-01-01T04:22:45.318Z,20.91
2018-01-01T04:23:54.249Z,20.84
2018-01-01T04:25:03.443Z,20.89
2018-01-01T04:26:12.637Z,20.92
2018-01-01T04:27:21.843Z,20.91
2018-01-01T04:28:30.528Z,20.91
2018-01-01T04:29:39.523Z,20.94
2018-01-01T04:30:48.474Z,20.94
2018-01-01T04:31:57.425Z,20.92
2018-01-01T04:33:06.103Z,20.85
2018-01-01T04:34:15.567Z,20.94
2018-01-01T04:35:24.767Z,20.92
2018-01-01T04:36:33.705Z,20.89
2018-01-01T04:37:42.899Z,20.89
2018-01-01T04:38:51.831Z,20.89
2018-01-01T04:40:01.030Z,20.91
2018-01-01T04:41:09.960Z,20.8
2018-01-01T04:42:19.158Z,20.89
2018-01-01T04:43:28.094Z,20.92
2018-01-01T04:44:36.768Z,20.85
2018-01-01T04:45:45.710Z,20.8
2018-01-01T04:46:54.646Z,20.85
2018-01-01T04:48:03.579Z,20.85
2018-01-01T04:49:12.320Z,20.8
2018-01-01T04:50:21.110Z,20.88
2018-01-01T04:51:30.122Z,20.85
2018-01-01T04:52:38.803Z,20.88
2018-01-01T04:53:47.737Z,20.8
2018-01-01T04:54:56.926Z,20.85
2018-01-01T04:56:05.857Z,20.87
2018-01-01T04:57:15.585Z,20.88
2018-01-01T04:58:24.782Z,20.82
2018-01-01T04:59:33.724Z,20.85
2018-01-01T05:00:43.192Z,20.89
2018-01-01T05:01:52.652Z,20.82
2018-01-01T05:03:02.116Z,20.84
2018-01-01T05:04:11.309Z,20.82
2018-01-01T05:05:20.243Z,20.85
2018-01-01T05:06:28.915Z,20.91
2018-01-01T05:07:38.117Z,20.87
2018-01-01T05:08:47.575Z,20.88
2018-01-01T05:09:56.785Z,20.8
2018-01-01T05:11:06.249Z,20.87
2018-01-01T05:12:15.447Z,20.87
2018-01-01T05:13:24.370Z,20.8
2018-01-01T05:14:33.310Z,20.85
2018-01-01T05:15:42.258Z,20.91
2018-01-01T05:16:51.182Z,20.85
2018-01-01T05:18:00.118Z,20.91
2018-01-01T05:19:09.823Z,20.88
2018-01-01T05:20:18.819Z,20.73
2018-01-01T05:21:28.275Z,20.82
2018-01-01T05:22:37.465Z,20.77
2018-01-01T05:23:46.397Z,20.85
2018-01-01T05:24:56.178Z,20.84
2018-01-01T05:26:05.898Z,20.79
2018-01-01T05:27:14.842Z,20.73
2018-01-01T05:28:24.105Z,20.79
2018-01-01T05:29:32.786Z,20.74
2018-01-01T05:30:41.979Z,20.74
2018-01-01T05:31:50.909Z,20.87
2018-01-01T05:33:00.376Z,20.79
2018-01-01T05:34:09.306Z,20.77
2018-01-01T05:35:18.234Z,20.76
2018-01-01T05:36:27.170Z,20.77
2018-01-01T05:37:36.106Z,20.76
2018-01-01T05:38:44.788Z,20.8
2018-01-01T05:39:53.462Z,20.8
2018-01-01T05:41:02.401Z,20.79
2018-01-01T05:42:11.598Z,20.84
2018-01-01T05:43:21.051Z,20.76
2018-01-01T05:44:30.521Z,20.8
2018-01-01T05:45:39.191Z,20.76
2018-01-01T05:46:48.388Z,20.79
2018-01-01T05:47:57.323Z,20.76
2018-01-01T05:49:06.548Z,20.77
2018-01-01T05:50:15.225Z,20.8
2018-01-01T05:51:24.983Z,20.8
2018-01-01T05:52:33.914Z,20.74
2018-01-01T05:53:42.848Z,20.77
2018-01-01T05:54:51.782Z,20.77
2018-01-01T05:56:00.707Z,20.76
2018-01-01T05:57:09.662Z,20.79
2018-01-01T05:58:18.339Z,20.76
2018-01-01T05:59:27.529Z,20.77
2018-01-01T06:00:36.976Z,20.8
2018-01-01T06:01:46.170Z,20.82
2018-01-01T06:02:54.844Z,20.85
2018-01-01T06:04:03.775Z,20.84
2018-01-01T06:05:12.711Z,20.84
2018-01-01T06:06:21.904Z,20.76
2018-01-01T06:07:30.840Z,20.8
2018-01-01T06:08:39.797Z,20.79
2018-01-01T06:09:48.735Z,20.79
2018-01-01T06:10:57.412Z,20.76
2018-01-01T06:12:06.093Z,20.84
2018-01-01T06:13:15.546Z,20.79
2018-01-01T06:14:24.490Z,20.74
2018-01-01T06:15:33.947Z,20.85
2018-01-01T06:16:42.618Z,20.8
2018-01-01T06:17:52.091Z,20.8
2018-01-01T06:19:01.046Z,20.79
2018-01-01T06:20:09.974Z,20.8
2018-01-01T06:21:19.158Z,20.84
2018-01-01T06:22:28.618Z,20.79
2018-01-01T06:23:37.821Z,20.79
2018-01-01T06:24:47.273Z,20.8
2018-01-01T06:25:56.525Z,20.82
2018-01-01T06:27:05.454Z,20.79
2018-01-01T06:28:14.121Z,20.77
2018-01-01T06:29:23.310Z,20.84
2018-01-01T06:30:32.510Z,20.8
2018-01-01T06:31:41.500Z,20.77
2018-01-01T06:32:50.176Z,20.79
2018-01-01T06:33:59.113Z,20.79
2018-01-01T06:35:08.589Z,20.79
2018-01-01T06:36:17.519Z,20.82
2018-01-01T06:37:26.726Z,20.76
2018-01-01T06:38:35.657Z,20.8
2018-01-01T06:39:44.853Z,20.74
2018-01-01T06:40:54.042Z,20.77
2018-01-01T06:42:02.967Z,20.74
2018-01-01T06:43:11.646Z,20.76
2018-01-01T06:44:20.839Z,20.8
2018-01-01T06:45:29.767Z,20.82
2018-01-01T06:46:38.952Z,20.72
2018-01-01T06:47:48.135Z,20.74
2018-01-01T06:48:57.066Z,20.72
2018-01-01T06:50:06.517Z,20.72
2018-01-01T06:51:15.181Z,20.76
2018-01-01T06:52:23.859Z,20.73
2018-01-01T06:53:33.071Z,20.76
2018-01-01T06:54:42.076Z,20.77
2018-01-01T06:55:51.014Z,20.77
2018-01-01T06:56:59.948Z,20.72
2018-01-01T06:58:09.412Z,20.79
2018-01-01T06:59:18.349Z,20.77
2018-01-01T07:00:27.547Z,20.77
2018-01-01T07:01:36.486Z,20.72
2018-01-01T07:02:45.688Z,20.77
2018-01-01T07:03:54.616Z,20.77
2018-01-01T07:05:03.547Z,20.82
2018-01-01T07:06:12.474Z,20.64
2018-01-01T07:07:21.671Z,20.84
2018-01-01T07:08:30.872Z,20.79
2018-01-01T07:09:40.321Z,20.8
2018-01-01T07:10:49.000Z,20.85
2018-01-01T07:11:58.459Z,20.79
2018-01-01T07:13:07.394Z,20.77
2018-01-01T07:14:16.581Z,20.85
2018-01-01T07:15:25.790Z,20.76
2018-01-01T07:16:34.742Z,20.79
2018-01-01T07:17:44.194Z,20.85
2018-01-01T07:18:52.866Z,20.77
2018-01-01T07:20:01.540Z,20.82
2018-01-01T07:21:10.478Z,20.74
2018-01-01T07:22:19.694Z,20.79
2018-01-01T07:23:28.628Z,20.92
2018-01-01T07:24:37.298Z,20.77
2018-01-01T07:25:46.498Z,20.79
2018-01-01T07:26:55.692Z,20.77
2018-01-01T07:28:04.884Z,20.85
2018-01-01T07:29:14.076Z,20.77
2018-01-01T07:30:23.280Z,20.76
2018-01-01T07:31:32.227Z,20.8
2018-01-01T07:32:40.901Z,20.92
2018-01-01T07:33:50.100Z,20.84
2018-01-01T07:34:59.300Z,20.88
2018-01-01T07:36:08.232Z,20.8
2018-01-01T07:37:16.918Z,20.85
2018-01-01T07:38:26.129Z,20.85
2018-01-01T07:39:35.330Z,20.8
2018-01-01T07:40:44.805Z,20.87
2018-01-01T07:41:53.749Z,20.82
2018-01-01T07:43:02.431Z,20.89
2018-01-01T07:44:11.880Z,20.88
2018-01-01T07:45:20.811Z,20.77
2018-01-01T07:46:29.756Z,20.82
2018-01-01T07:47:38.438Z,20.85
2018-01-01T07:48:47.627Z,20.88
2018-01-01T07:49:57.101Z,20.88
2018-01-01T07:51:06.300Z,20.85
2018-01-01T07:52:15.504Z,20.89
2018-01-01T07:53:24.706Z,20.89
2018-01-01T07:54:34.159Z,20.85
2018-01-01T07:55:43.355Z,20.88
2018-01-01T07:56:52.287Z,20.87
2018-01-01T07:58:00.969Z,20.85
2018-01-01T07:59:10.169Z,20.87
2018-01-01T08:00:19.622Z,20.84
2018-01-01T08:01:28.841Z,20.89
2018-01-01T08:02:37.789Z,20.91
2018-01-01T08:03:46.478Z,20.91
2018-01-01T08:04:55.171Z,20.82
2018-01-01T08:06:03.850Z,20.85
2018-01-01T08:07:13.562Z,20.85
2018-01-01T08:08:22.501Z,20.82
2018-01-01T08:09:31.443Z,20.88
2018-01-01T08:10:40.639Z,20.84
2018-01-01T08:11:49.825Z,20.84
2018-01-01T08:12:58.769Z,20.84
2018-01-01T08:14:07.967Z,20.82
2018-01-01T08:15:16.910Z,20.88
2018-01-01T08:16:26.363Z,20.91
2018-01-01T08:17:35.823Z,20.85
2018-01-01T08:18:45.059Z,20.91
2018-01-01T08:19:53.745Z,20.87
2018-01-01T08:21:02.422Z,20.87
2018-01-01T08:22:12.135Z,20.91
2018-01-01T08:23:21.600Z,20.8
2018-01-01T08:24:31.068Z,20.95
2018-01-01T08:25:40.268Z,20.92
2018-01-01T08:26:49.198Z,20.95
2018-01-01T08:27:57.916Z,20.94
2018-01-01T08:29:06.852Z,20.97
2018-01-01T08:30:15.522Z,20.92
2018-01-01T08:31:24.717Z,20.92
2018-01-01T08:32:36.593Z,20.92
2018-01-01T08:33:46.053Z,20.92
2018-01-01T08:34:54.978Z,20.84
2018-01-01T08:36:03.652Z,20.79
2018-01-01T08:37:13.107Z,20.84
2018-01-01T08:38:22.303Z,20.88
2018-01-01T08:39:31.494Z,20.85
2018-01-01T08:40:40.437Z,20.84
2018-01-01T08:41:49.381Z,20.91
2018-01-01T08:42:58.325Z,20.82
2018-01-01T08:44:07.773Z,20.92
2018-01-01T08:45:16.709Z,20.85
2018-01-01T08:46:25.911Z,20.91
2018-01-01T08:47:34.838Z,20.82
2018-01-01T08:48:44.050Z,20.89
2018-01-01T08:49:52.988Z,20.85
2018-01-01T08:51:01.920Z,20.82
2018-01-01T08:52:10.602Z,20.89
2018-01-01T08:53:19.532Z,20.82
2018-01-01T08:54:28.481Z,20.85
2018-01-01T08:55:37.149Z,20.87
2018-01-01T08:56:46.082Z,20.84
2018-01-01T08:57:55.015Z,20.82
2018-01-01T08:59:03.948Z,20.84
2018-01-01T09:00:12.624Z,20.8
2018-01-01T09:01:21.566Z,20.92
2018-01-01T09:02:30.501Z,20.84
2018-01-01T09:03:39.436Z,20.87
2018-01-01T09:04:48.901Z,20.84
2018-01-01T09:05:58.098Z,20.82
2018-01-01T09:07:06.793Z,20.82
2018-01-01T09:08:15.722Z,20.82
2018-01-01T09:09:24.399Z,20.87
2018-01-01T09:10:33.324Z,20.84
2018-01-01T09:11:42.266Z,20.91
2018-01-01T09:12:51.208Z,20.88
2018-01-01T09:13:59.971Z,20.88
2018-01-01T09:15:08.916Z,20.84
2018-01-01T09:16:17.587Z,20.89
2018-01-01T09:17:26.790Z,20.89
2018-01-01T09:18:36.289Z,20.82
2018-01-01T09:19:45.486Z,20.95
2018-01-01T09:20:54.456Z,20.82
2018-01-01T09:22:03.408Z,20.89
2018-01-01T09:23:12.343Z,20.89
2018-01-01T09:24:21.548Z,20.89
2018-01-01T09:25:30.752Z,20.97
2018-01-01T09:26:39.947Z,20.92
2018-01-01T09:27:48.878Z,20.94
2018-01-01T09:28:57.817Z,20.91
2018-01-01T09:30:07.024Z,20.97
2018-01-01T09:31:16.488Z,20.94
2018-01-01T09:32:25.439Z,20.94
2018-01-01T09:33:34.388Z,20.89
2018-01-01T09:34:43.343Z,20.91
2018-01-01T09:35:52.437Z,20.95
2018-01-01T09:37:01.330Z,20.95
2018-01-01T09:38:11.333Z,20.98
2018-01-01T09:39:21.149Z,21.01
2018-01-01T09:40:30.154Z,20.97
2018-01-01T09:41:39.418Z,20.92
2018-01-01T09:42:48.104Z,20.94
2018-01-01T09:43:57.156Z,20.95
2018-01-01T09:45:06.351Z,20.97
2018-01-01T09:46:15.055Z,20.94
2018-01-01T09:47:24.284Z,20.99
2018-01-01T09:48:33.224Z,20.99
2018-01-01T09:49:42.554Z,21.09
2018-01-01T09:50:51.871Z,21.03
2018-01-01T09:52:00.511Z,21.03
2018-01-01T09:53:09.454Z,21.09
2018-01-01T09:54:18.126Z,21.03
2018-01-01T09:55:26.875Z,21.07
2018-01-01T09:56:35.634Z,21.09
2018-01-01T09:57:44.830Z,21.06
2018-01-01T09:58:53.908Z,21.03
2018-01-01T10:00:03.939Z,21.07
2018-01-01T10:01:13.391Z,21.07
2018-01-01T10:02:22.335Z,21.04
2018-01-01T10:03:31.359Z,21.01
2018-01-01T10:04:40.633Z,21.12
2018-01-01T10:05:49.825Z,21.14
2018-01-01T10:06:58.815Z,21.07
2018-01-01T10:08:09.620Z,21.16
2018-01-01T10:09:19.185Z,21.13
2018-01-01T10:10:27.857Z,21.14
2018-01-01T10:11:36.802Z,21.13
2018-01-01T10:12:46.269Z,21.06
2018-01-01T10:13:55.074Z,21.16
2018-01-01T10:15:04.354Z,21.07
2018-01-01T10:16:13.305Z,21.14
2018-01-01T10:17:22.239Z,21.04
2018-01-01T10:18:31.172Z,21.04
2018-01-01T10:19:39.916Z,21.04
2018-01-01T10:20:49.159Z,21.13
2018-01-01T10:21:58.616Z,21.06
2018-01-01T10:23:08.720Z,21.14
2018-01-01T10:24:18.692Z,21.14
2018-01-01T10:25:27.895Z,21.14
2018-01-01T10:26:36.829Z,21.03
2018-01-01T10:27:45.519Z,21.1
2018-01-01T10:28:55.199Z,21.06
2018-01-01T10:30:04.223Z,21.03
2018-01-01T10:31:13.459Z,21.12
2018-01-01T10:32:22.142Z,21.14
2018-01-01T10:33:31.341Z,21.03
2018-01-01T10:34:40.317Z,21.1
2018-01-01T10:35:49.255Z,21.13
2018-01-01T10:36:58.446Z,21.04
2018-01-01T10:38:07.953Z,21.13
2018-01-01T10:39:17.150Z,21.19
2018-01-01T10:40:26.095Z,21.17
2018-01-01T10:41:35.023Z,21.17
2018-01-01T10:42:43.974Z,21.13
2018-01-01T10:43:52.658Z,21.22
2018-01-01T10:45:01.587Z,21.25
2018-01-01T10:46:10.254Z,21.27
2018-01-01T10:47:18.981Z,21.4
2018-01-01T10:48:27.865Z,21.34
2018-01-01T10:49:36.538Z,21.4
2018-01-01T10:50:45.472Z,21.5
2018-01-01T10:51:54.412Z,21.53
2018-01-01T10:53:03.095Z,21.56
2018-01-01T10:54:12.032Z,21.65
2018-01-01T10:55:20.973Z,21.69
2018-01-01T10:56:29.899Z,21.72
2018-01-01T10:57:38.576Z,21.82
2018-01-01T10:58:47.255Z,21.82
2018-01-01T10:59:55.924Z,21.94
2018-01-01T11:01:04.859Z,21.92
2018-01-01T11:02:13.809Z,21.98
2018-01-01T11:03:22.502Z,21.96
2018-01-01T11:04:31.449Z,22
2018-01-01T11:05:40.940Z,22.07
2018-01-01T11:06:50.185Z,22.2
2018-01-01T11:07:59.381Z,22.2
2018-01-01T11:09:08.056Z,22.28
2018-01-01T11:10:17.263Z,22.33
2018-01-01T11:11:26.228Z,22.31
2018-01-01T11:12:35.163Z,22.39
2018-01-01T11:13:43.843Z,22.45
2018-01-01T11:14:52.798Z,22.39
2018-01-01T11:16:01.740Z,22.55
2018-01-01T11:17:10.668Z,22.54
2018-01-01T11:18:19.883Z,22.57
2018-01-01T11:19:28.822Z,22.64
2018-01-01T11:20:38.478Z,22.6
2018-01-01T11:21:47.422Z,22.58
2018-01-01T11:22:56.102Z,22.58
2018-01-01T11:24:04.786Z,22.6
2018-01-01T11:25:13.730Z,22.6
2018-01-01T11:26:22.397Z,22.58
2018-01-01T11:27:31.082Z,22.61
2018-01-01T11:28:40.425Z,22.55
2018-01-01T11:29:50.240Z,22.6
2018-01-01T11:30:59.172Z,22.55
2018-01-01T11:32:08.119Z,22.67
2018-01-01T11:33:17.345Z,22.61
2018-01-01T11:34:26.796Z,22.62
2018-01-01T11:35:35.549Z,22.7
2018-01-01T11:36:45.006Z,22.64
2018-01-01T11:37:53.964Z,22.62
2018-01-01T11:39:02.961Z,22.58
2018-01-01T11:40:12.150Z,22.65
2018-01-01T11:41:21.108Z,22.6
2018-01-01T11:42:30.110Z,22.55
2018-01-01T11:43:39.127Z,22.57
2018-01-01T11:44:48.088Z,22.62
2018-01-01T11:45:57.824Z,22.6
2018-01-01T11:47:06.778Z,22.55
2018-01-01T11:48:16.512Z,22.55
2018-01-01T11:49:25.712Z,22.61
2018-01-01T11:50:35.150Z,22.57
2018-01-01T11:51:44.081Z,22.49
2018-01-01T11:52:53.024Z,22.58
2018-01-01T11:54:01.695Z,22.47
2018-01-01T11:55:10.383Z,22.43
2018-01-01T11:56:19.055Z,22.45
2018-01-01T11:57:28.297Z,22.46
2018-01-01T11:58:37.724Z,22.43
2018-01-01T11:59:46.887Z,22.47
2018-01-01T12:00:55.825Z,22.47
2018-01-01T12:02:05.883Z,22.45
2018-01-01T12:03:15.532Z,22.39
2018-01-01T12:04:24.216Z,22.35
2018-01-01T12:05:32.891Z,22.36
2018-01-01T12:06:41.652Z,22.39
2018-01-01T12:07:50.598Z,22.43
2018-01-01T12:08:59.799Z,22.42
2018-01-01T12:10:08.742Z,22.35
2018-01-01T12:11:17.684Z,22.4
2018-01-01T12:12:26.683Z,22.33
2018-01-01T12:13:35.580Z,22.3
2018-01-01T12:14:44.775Z,22.35
2018-01-01T12:15:53.707Z,22.35
2018-01-01T12:17:02.645Z,22.31
2018-01-01T12:18:11.867Z,22.33
2018-01-01T12:19:21.324Z,22.27
2018-01-01T12:20:30.006Z,22.3
2018-01-01T12:21:38.678Z,22.31
2018-01-01T12:22:47.623Z,22.24
2018-01-01T12:23:56.292Z,22.24
2018-01-01T12:25:04.964Z,22.21
2018-01-01T12:26:14.390Z,22.21
2018-01-01T12:27:23.346Z,22.27
2018-01-01T12:28:32.034Z,22.24
2018-01-01T12:29:41.482Z,22.2
2018-01-01T12:30:50.672Z,22.22
2018-01-01T12:32:00.117Z,22.22
2018-01-01T12:33:09.564Z,22.17
2018-01-01T12:34:18.497Z,22.18
2018-01-01T12:35:27.168Z,22.2
2018-01-01T12:36:36.108Z,22.21
2018-01-01T12:37:45.055Z,22.18
2018-01-01T12:38:54.249Z,22.15
2018-01-01T12:40:03.189Z,22.2
2018-01-01T12:41:12.130Z,22.18
2018-01-01T12:42:21.078Z,22.17
2018-01-01T12:43:30.576Z,22.21
2018-01-01T12:44:40.324Z,22.25
2018-01-01T12:45:49.540Z,22.22
2018-01-01T12:46:58.301Z,22.18
2018-01-01T12:48:07.282Z,22.2
2018-01-01T12:49:16.221Z,22.21
2018-01-01T12:50:25.410Z,22.21
2018-01-01T12:51:34.091Z,22.25
2018-01-01T12:52:43.027Z,22.18
2018-01-01T12:53:52.475Z,22.25
2018-01-01T12:55:01.153Z,22.2
2018-01-01T12:56:10.081Z,22.2
2018-01-01T12:57:19.283Z,22.2
2018-01-01T12:58:28.492Z,22.22
2018-01-01T12:59:37.683Z,22.2
2018-01-01T13:00:46.612Z,22.18
2018-01-01T13:01:55.284Z,22.21
2018-01-01T13:03:04.535Z,22.24
2018-01-01T13:04:13.216Z,22.2
2018-01-01T13:05:22.665Z,22.18
2018-01-01T13:06:31.865Z,22.24
2018-01-01T13:07:41.329Z,22.18
2018-01-01T13:08:51.272Z,22.15
2018-01-01T13:10:00.936Z,22.21
2018-01-01T13:11:10.297Z,22.22
2018-01-01T13:12:19.566Z,22.17
2018-01-01T13:13:28.395Z,22.2
2018-01-01T13:14:39.145Z,22.15
2018-01-01T13:15:47.860Z,22.17
2018-01-01T13:16:56.835Z,22.2
2018-01-01T13:18:05.637Z,22.21
2018-01-01T13:19:14.602Z,22.12
2018-01-01T13:20:23.274Z,22.22
2018-01-01T13:21:32.630Z,22.2
2018-01-01T13:22:41.680Z,22.2
2018-01-01T13:23:50.946Z,22.24
2018-01-01T13:25:01.314Z,22.18
2018-01-01T13:26:10.843Z,22.17
2018-01-01T13:27:19.892Z,22.24
2018-01-01T13:28:29.099Z,22.17
2018-01-01T13:29:38.300Z,22.14
2018-01-01T13:30:47.651Z,22.17
2018-01-01T13:31:56.862Z,22.2
2018-01-01T13:33:05.833Z,22.14
2018-01-01T13:34:16.153Z,22.2
2018-01-01T13:35:25.484Z,22.2
2018-01-01T13:36:34.524Z,22.05
2018-01-01T13:37:44.954Z,22.1
2018-01-01T13:38:53.799Z,22.14
2018-01-01T13:40:03.024Z,22.17
2018-01-01T13:41:12.922Z,22.12
2018-01-01T13:42:21.939Z,22.07
2018-01-01T13:43:31.403Z,22.07
2018-01-01T13:44:41.658Z,22.05
2018-01-01T13:45:51.523Z,22.05
2018-01-01T13:47:01.238Z,22.07
2018-01-01T13:48:10.687Z,22.09
2018-01-01T13:49:20.039Z,22.14
2018-01-01T13:50:29.758Z,22.07
2018-01-01T13:51:39.133Z,22.09
2018-01-01T13:52:48.363Z,22
2018-01-01T13:53:57.076Z,22.09
2018-01-01T13:55:06.674Z,22.02
2018-01-01T13:56:16.781Z,22.06
2018-01-01T13:57:25.692Z,22.06
2018-01-01T13:58:35.490Z,22.06
2018-01-01T13:59:44.700Z,22.03
2018-01-01T14:00:53.430Z,22.02
2018-01-01T14:02:02.431Z,22.07
2018-01-01T14:03:11.265Z,21.98
2018-01-01T14:04:19.938Z,22
2018-01-01T14:05:29.952Z,22
2018-01-01T14:06:40.179Z,21.98
2018-01-01T14:07:49.148Z,22
2018-01-01T14:09:00.933Z,21.96
2018-01-01T14:10:11.004Z,21.96
2018-01-01T14:11:20.598Z,21.98
2018-01-01T14:12:29.625Z,22
2018-01-01T14:13:39.734Z,21.98
2018-01-01T14:14:48.973Z,22
2018-01-01T14:15:58.649Z,21.94
2018-01-01T14:17:08.285Z,21.98
2018-01-01T14:18:18.024Z,21.96
2018-01-01T14:19:27.224Z,21.88
2018-01-01T14:20:36.494Z,21.91
2018-01-01T14:21:45.173Z,21.99
2018-01-01T14:22:54.103Z,21.99
2018-01-01T14:24:03.361Z,21.92
2018-01-01T14:25:12.393Z,21.9
2018-01-01T14:26:21.590Z,21.98
2018-01-01T14:27:30.523Z,21.92
2018-01-01T14:28:39.199Z,21.88
2018-01-01T14:29:47.876Z,21.88
2018-01-01T14:30:56.810Z,21.92
2018-01-01T14:32:06.066Z,21.94
2018-01-01T14:33:15.256Z,21.92
2018-01-01T14:34:24.706Z,21.92
2018-01-01T14:35:33.902Z,21.92
2018-01-01T14:36:43.088Z,21.82
2018-01-01T14:37:51.755Z,21.88
2018-01-01T14:39:00.947Z,21.86
2018-01-01T14:40:10.138Z,21.92
2018-01-01T14:41:19.083Z,21.84
2018-01-01T14:42:27.763Z,21.9
2018-01-01T14:43:36.448Z,21.88
2018-01-01T14:44:45.382Z,21.86
2018-01-01T14:45:54.050Z,21.92
2018-01-01T14:47:02.716Z,21.92
2018-01-01T14:48:11.920Z,21.92
2018-01-01T14:49:20.851Z,21.9
2018-01-01T14:50:29.800Z,21.8
2018-01-01T14:51:38.478Z,21.86
2018-01-01T14:52:47.415Z,21.96